Time;durP1;ratioP1;P1;durP2;ratioP2;P2;SDS_P1;SDS_P2;PMS_P1;PMS_P2;Temp;Humidity;BMP_temperature;BMP_pressure;BME280_temperature;BME280_humidity;BME280_pressure;Samples;Min_cycle;Max_cycle;Signal;HPM_P1;HPM_P2
2022/07/08 00:01:57;;;;;;;4.85;2.70;;;;;;;16.86;100.00;100239.73;1748234;82;20986;-69
2022/07/08 00:04:23;;;;;;;3.45;2.80;;;;;;;16.88;100.00;100247.63;1748281;82;21040;-71
2022/07/08 00:06:51;;;;;;;6.78;2.92;;;;;;;16.86;100.00;100243.73;1748306;82;22042;-70
2022/07/08 00:09:17;;;;;;;5.28;2.80;;;;;;;16.85;100.00;100252.67;1748489;82;21461;-69
2022/07/08 00:11:44;;;;;;;3.15;2.83;;;;;;;16.82;100.00;100251.54;1748063;82;21106;-69
2022/07/08 00:14:11;;;;;;;9.30;3.58;;;;;;;16.79;100.00;100247.72;1747953;82;21041;-70
2022/07/08 00:16:43;;;;;;;5.37;3.20;;;;;;;16.75;100.00;100246.19;1748183;82;21015;-70
2022/07/08 00:19:14;;;;;;;8.68;3.37;;;;;;;16.70;100.00;100240.27;1748160;82;21076;-69
2022/07/08 00:21:43;;;;;;;6.72;3.22;;;;;;;16.60;100.00;100229.34;1748092;82;21179;-71
2022/07/08 00:24:12;;;;;;;7.55;3.50;;;;;;;16.52;100.00;100223.16;1734630;81;21582;-69
2022/07/08 00:26:40;;;;;;;3.90;3.20;;;;;;;16.46;100.00;100226.66;1734240;82;21148;-70
2022/07/08 00:29:07;;;;;;;4.97;3.60;;;;;;;16.38;100.00;100225.80;1734197;82;21113;-69
2022/07/08 00:31:34;;;;;;;5.17;3.35;;;;;;;16.33;100.00;100230.52;1734236;82;21034;-68
2022/07/08 00:34:01;;;;;;;4.00;3.27;;;;;;;16.31;100.00;100240.37;1734125;82;21124;-69
2022/07/08 00:36:28;;;;;;;6.33;3.33;;;;;;;16.30;100.00;100246.17;1734144;82;21050;-69
2022/07/08 00:38:55;;;;;;;5.60;3.27;;;;;;;16.32;100.00;100252.25;1734274;82;21054;-70
2022/07/08 00:41:21;;;;;;;6.47;3.10;;;;;;;16.33;100.00;100259.30;1734472;82;21669;-69
2022/07/08 00:43:48;;;;;;;6.10;3.00;;;;;;;16.36;100.00;100276.86;1734017;82;21011;-69
2022/07/08 00:46:16;;;;;;;3.85;3.17;;;;;;;16.37;100.00;100285.20;1734171;82;21343;-70
2022/07/08 00:48:43;;;;;;;3.50;3.12;;;;;;;16.35;100.00;100287.09;1734197;82;21058;-70
2022/07/08 00:51:13;;;;;;;5.58;3.15;;;;;;;16.32;100.00;100292.59;1734031;82;21602;-68
2022/07/08 00:53:44;;;;;;;4.35;3.17;;;;;;;16.30;100.00;100295.81;1720370;82;21030;-69
2022/07/08 00:56:11;;;;;;;3.90;3.30;;;;;;;16.26;100.00;100299.59;1704892;84;21019;-70
2022/07/08 00:58:39;;;;;;;4.20;3.22;;;;;;;16.25;100.00;100301.87;1704858;84;21566;-69
2022/07/08 01:01:06;;;;;;;4.20;3.35;;;;;;;16.21;100.00;100304.31;1708247;83;21566;-68
2022/07/08 01:03:33;;;;;;;6.87;3.40;;;;;;;16.21;100.00;100304.31;1704850;84;21529;-68
2022/07/08 01:06:00;;;;;;;4.42;3.92;;;;;;;16.20;100.00;100303.47;1704788;84;21118;-68
2022/07/08 01:08:27;;;;;;;5.62;3.60;;;;;;;16.20;100.00;100307.94;1704667;84;22223;-67
2022/07/08 01:10:54;;;;;;;4.50;3.67;;;;;;;16.18;100.00;100309.82;1704806;84;21122;-69
2022/07/08 01:13:22;;;;;;;5.70;3.90;;;;;;;16.17;100.00;100308.09;1704684;84;21041;-67
2022/07/08 01:15:51;;;;;;;4.42;4.03;;;;;;;16.15;100.00;100310.38;1704979;84;21333;-68
2022/07/08 01:18:25;;;;;;;4.75;3.80;;;;;;;16.15;100.00;100305.06;1705009;84;21601;-68
2022/07/08 01:20:52;;;;;;;4.97;4.30;;;;;;;16.14;100.00;100304.66;1704998;84;21118;-69
2022/07/08 01:23:19;;;;;;;6.10;4.20;;;;;;;16.12;100.00;100299.91;1708561;83;21507;-68
2022/07/08 01:25:46;;;;;;;7.17;4.55;;;;;;;16.09;100.00;100297.43;1712649;83;21085;-70
2022/07/08 01:28:13;;;;;;;7.45;4.70;;;;;;;16.06;100.00;100300.75;1712939;83;21084;-69
2022/07/08 01:30:41;;;;;;;4.55;4.15;;;;;;;15.99;100.00;100297.59;1713183;83;20998;-68
2022/07/08 01:33:08;;;;;;;8.93;4.55;;;;;;;16.00;100.00;100293.12;1712909;83;21049;-69
2022/07/08 01:35:35;;;;;;;7.53;4.67;;;;;;;15.98;100.00;100295.86;1712606;83;21132;-68
2022/07/08 01:38:02;;;;;;;9.20;4.40;;;;;;;15.99;100.00;100300.25;1712756;83;21565;-68
2022/07/08 01:40:29;;;;;;;4.85;4.42;;;;;;;16.01;100.00;100310.76;1712893;83;21097;-68
2022/07/08 01:42:56;;;;;;;5.22;4.45;;;;;;;16.03;100.00;100314.19;1712668;83;21054;-68
2022/07/08 01:45:23;;;;;;;8.03;4.62;;;;;;;16.02;100.00;100314.67;1712619;83;21049;-71
2022/07/08 01:47:51;;;;;;;11.22;4.70;;;;;;;16.02;100.00;100319.98;1712725;83;21150;-69
2022/07/08 01:50:18;;;;;;;7.47;4.92;;;;;;;16.01;100.00;100316.95;1712388;83;21613;-69
2022/07/08 01:52:45;;;;;;;6.35;4.53;;;;;;;16.02;100.00;100317.33;1712710;83;21529;-70
2022/07/08 01:55:12;;;;;;;5.47;4.95;;;;;;;16.01;100.00;100324.92;1712652;83;21049;-70
2022/07/08 01:57:39;;;;;;;5.30;4.60;;;;;;;16.00;100.00;100323.19;1712610;83;21053;-69
2022/07/08 02:00:07;;;;;;;5.50;5.00;;;;;;;16.00;100.00;100318.36;1712816;83;21337;-70
2022/07/08 02:02:40;;;;;;;7.75;5.12;;;;;;;16.00;100.00;100327.17;1712747;83;20997;-71
2022/07/08 02:05:09;;;;;;;6.75;4.87;;;;;;;15.99;100.00;100316.18;1712743;83;21066;-72
2022/07/08 02:07:36;;;;;;;7.08;4.75;;;;;;;15.99;100.00;100324.59;1712977;83;21085;-70
2022/07/08 02:10:04;;;;;;;7.75;4.72;;;;;;;15.99;100.00;100324.15;1712703;83;21065;-71
2022/07/08 02:12:31;;;;;;;6.42;5.17;;;;;;;16.00;100.00;100325.00;1712571;83;21845;-70
2022/07/08 02:15:04;;;;;;;6.97;4.67;;;;;;;16.01;100.00;100326.25;1712672;83;21057;-71
2022/07/08 02:17:33;;;;;;;8.50;4.65;;;;;;;16.01;100.00;100326.25;1712256;83;21101;-70
2022/07/08 02:20:00;;;;;;;5.30;4.80;;;;;;;16.02;100.00;100327.95;1712943;83;20982;-70
2022/07/08 02:22:27;;;;;;;7.08;4.47;;;;;;;16.04;100.00;100333.19;1712660;83;21710;-71
2022/07/08 02:24:53;;;;;;;5.78;5.10;;;;;;;16.07;100.00;100331.20;1705179;83;21171;-69
2022/07/08 02:27:20;;;;;;;8.10;4.33;;;;;;;16.08;100.00;100322.30;1704638;84;21515;-69
2022/07/08 02:29:47;;;;;;;5.22;4.72;;;;;;;16.11;100.00;100322.12;1705133;84;21049;-72
2022/07/08 02:32:14;;;;;;;5.28;4.45;;;;;;;16.12;100.00;100321.16;1704932;84;21101;-70
2022/07/08 02:34:41;;;;;;;5.25;4.55;;;;;;;16.13;100.00;100322.89;1704688;84;21612;-70
2022/07/08 02:37:09;;;;;;;4.90;4.25;;;;;;;16.11;100.00;100314.14;1704895;84;21042;-70
2022/07/08 02:39:36;;;;;;;8.78;4.50;;;;;;;16.11;100.00;100312.81;1704654;84;21089;-70
2022/07/08 02:42:04;;;;;;;6.72;4.97;;;;;;;16.11;100.00;100318.13;1704732;84;21573;-69
2022/07/08 02:44:30;;;;;;;7.03;4.60;;;;;;;16.11;100.00;100319.94;1712649;82;21101;-73
2022/07/08 02:46:57;;;;;;;6.60;3.98;;;;;;;16.11;100.00;100311.97;1732931;82;21615;-73
2022/07/08 02:49:23;;;;;;;7.47;4.58;;;;;;;16.12;100.00;100319.83;1713148;82;21113;-71
2022/07/08 02:51:50;;;;;;;5.65;4.12;;;;;;;16.15;100.00;100324.14;1734271;82;21043;-71
2022/07/08 02:54:17;;;;;;;6.40;3.27;;;;;;;16.18;100.00;100324.44;1712811;82;21178;-70
2022/07/08 03:00:39;;;;;;;13.25;4.30;;;;;;;16.27;100.00;100322.58;1734104;82;21043;-72
2022/07/08 03:03:06;;;;;;;6.83;3.80;;;;;;;16.32;100.00;100321.83;1734270;82;21811;-72
2022/07/08 03:05:34;;;;;;;4.30;3.90;;;;;;;16.34;100.00;100326.59;1734154;82;21027;-70
2022/07/08 03:08:02;;;;;;;7.22;3.80;;;;;;;16.36;100.00;100326.03;1734335;82;21511;-71
2022/07/08 03:10:30;;;;;;;7.20;4.15;;;;;;;16.36;100.00;100326.03;1734211;82;21641;-71
2022/07/08 03:12:56;;;;;;;5.08;4.05;;;;;;;16.34;100.00;100323.93;1734329;82;21007;-72
2022/07/08 03:15:23;;;;;;;4.50;4.10;;;;;;;16.34;100.00;100319.94;1734227;82;21158;-71
2022/07/08 03:17:50;;;;;;;5.25;4.30;;;;;;;16.32;100.00;100318.69;1734439;82;21043;-71
2022/07/08 03:20:17;;;;;;;7.25;4.95;;;;;;;16.32;100.00;100308.55;1734109;82;21038;-70
2022/07/08 03:22:44;;;;;;;6.80;3.85;;;;;;;16.33;100.00;100311.57;1734366;82;21042;-72
2022/07/08 03:25:11;;;;;;;4.80;4.22;;;;;;;16.33;100.00;100314.23;1747134;81;21100;-71
2022/07/08 03:27:39;;;;;;;4.42;4.03;;;;;;;16.36;100.00;100316.73;1748186;82;21168;-71
2022/07/08 03:30:07;;;;;;;5.78;4.15;;;;;;;16.39;100.00;100320.52;1748386;82;21045;-71
2022/07/08 03:32:34;;;;;;;4.65;3.90;;;;;;;16.43;100.00;100326.05;1748169;82;21612;-72
2022/07/08 03:35:00;;;;;;;5.47;3.80;;;;;;;16.46;100.00;100327.67;1735754;82;21117;-71
2022/07/08 03:37:27;;;;;;;8.23;3.83;;;;;;;16.48;100.00;100329.30;1718512;83;21695;-72
2022/07/08 03:39:54;;;;;;;6.50;3.58;;;;;;;16.53;100.00;100326.36;1718281;83;21097;-71
2022/07/08 03:42:20;;;;;;;5.97;3.60;;;;;;;16.55;100.00;100329.31;1718237;83;21053;-71
2022/07/08 03:44:47;;;;;;;6.03;4.03;;;;;;;16.58;100.00;100327.80;1729526;82;21077;-72
2022/07/08 03:47:14;;;;;;;8.80;5.00;;;;;;;16.62;100.00;100330.30;1748180;82;21077;-71
2022/07/08 03:49:41;;;;;;;12.10;5.72;;;;;;;16.67;100.00;100333.53;1719850;82;21103;-71
2022/07/08 03:52:08;;;;;;;8.58;4.87;;;;;;;16.69;100.00;100339.62;1718297;83;21806;-70
2022/07/08 03:54:34;;;;;;;6.37;4.45;;;;;;;16.69;100.00;100338.28;1743597;82;21161;-71
2022/07/08 03:57:01;;;;;;;4.10;3.42;;;;;;;16.76;100.00;100342.29;1748531;82;21046;-71
2022/07/08 03:59:28;;;;;;;5.90;3.33;;;;;;;16.85;100.00;100337.78;1736114;82;21092;-71
2022/07/08 04:01:55;;;;;;;4.37;2.55;;;;;;;16.96;100.00;100338.00;1718220;83;21076;-70
2022/07/08 04:04:22;;;;;;;6.37;3.40;;;;;;;17.05;100.00;100339.73;1718138;83;21128;-71
2022/07/08 04:06:51;;;;;;;3.33;2.87;;;;;;;17.11;100.00;100343.33;1718261;83;21103;-71
2022/07/08 04:09:17;;;;;;;4.10;3.02;;;;;;;17.18;100.00;100332.70;1718253;83;21659;-71
2022/07/08 04:11:44;;;;;;;3.95;3.27;;;;;;;17.28;100.00;100339.18;1718101;83;21028;-71
2022/07/08 04:14:11;;;;;;;5.87;3.22;;;;;;;17.34;100.00;100329.46;1718506;83;21080;-70
2022/07/08 04:16:38;;;;;;;8.53;3.55;;;;;;;17.45;100.00;100334.61;1718233;83;21129;-72
2022/07/08 04:19:05;;;;;;;7.50;3.65;;;;;;;17.44;100.00;100324.90;1718614;82;21053;-73
2022/07/08 04:21:32;;;;;;;5.28;3.62;;;;;;;17.43;100.00;100324.53;1744081;82;21060;-72
2022/07/08 04:23:59;;;;;;;6.40;3.50;;;;;;;17.42;100.00;100321.50;1732816;82;21061;-73
2022/07/08 04:26:31;;;;;;;6.80;3.02;;;;;;;17.40;100.00;100325.09;1718342;83;21026;-72
2022/07/08 04:28:55;;;;;;;3.87;2.77;;;;;;;17.42;100.00;100320.17;1718144;83;21135;-72
2022/07/08 04:31:21;;;;;;;8.73;3.77;;;;;;;17.45;100.00;100325.30;1718260;83;21545;-70
2022/07/08 04:33:48;;;;;;;4.83;3.58;;;;;;;17.51;100.00;100326.25;1727331;82;21105;-73
2022/07/08 04:36:15;;;;;;;6.70;3.60;;;;;;;17.55;100.00;100326.41;1748048;82;21081;-72
2022/07/08 04:38:41;;;;;;;7.87;3.62;;;;;;;17.60;100.00;100327.01;1748118;82;21033;-72
2022/07/08 04:41:12;;;;;;;4.37;3.58;;;;;;;17.68;100.00;100321.18;1748354;82;22136;-72
2022/07/08 04:43:38;;;;;;;6.90;3.33;;;;;;;17.73;100.00;100326.58;1748005;82;21576;-71
2022/07/08 04:46:06;;;;;;;5.80;3.12;;;;;;;17.84;100.00;100334.41;1747908;82;21015;-72
2022/07/08 04:48:37;;;;;;;4.78;3.30;;;;;;;17.93;100.00;100336.48;1748249;82;22255;-71
2022/07/08 04:51:05;;;;;;;6.67;2.98;;;;;;;18.03;100.00;100344.25;1748201;82;21068;-71
2022/07/08 04:53:31;;;;;;;5.95;3.20;;;;;;;18.14;100.00;100347.08;1735729;82;21145;-72
2022/07/08 04:55:58;;;;;;;3.80;3.35;;;;;;;18.26;100.00;100347.23;1721482;82;21659;-72
2022/07/08 04:58:24;;;;;;;4.17;2.80;;;;;;;18.36;100.00;100352.36;1723703;82;21041;-73
2022/07/08 05:00:51;;;;;;;4.92;2.80;;;;;;;18.45;100.00;100354.42;1736075;82;21074;-72
2022/07/08 05:03:17;;;;;;;6.85;3.58;;;;;;;18.55;100.00;100362.16;1725458;82;21122;-74
2022/07/08 05:05:44;;;;;;;3.58;3.20;;;;;;;18.65;100.00;100369.91;1735120;82;22216;-74
2022/07/08 05:08:10;;;;;;;5.92;3.00;;;;;;;18.75;100.00;100371.97;1748651;82;21636;-73
2022/07/08 05:10:37;;;;;;;3.65;2.83;;;;;;;18.86;100.00;100374.34;1748278;82;21092;-74
2022/07/08 05:13:07;;;;;;;4.28;2.80;;;;;;;18.96;100.00;100363.89;1748227;82;21096;-74
2022/07/08 05:15:34;;;;;;;5.30;2.62;;;;;;;19.04;100.00;100362.87;1748218;82;21009;-72
2022/07/08 05:18:01;;;;;;;5.10;2.67;;;;;;;19.10;100.00;100361.61;1748110;82;21614;-72
2022/07/08 05:20:28;;;;;;;4.67;3.00;;;;;;;19.12;100.00;100350.35;1748070;82;21025;-72
2022/07/08 05:22:55;;;;;;;4.28;2.72;;;;;;;19.10;100.00;100351.42;1748434;82;21264;-72
2022/07/08 05:25:21;;;;;;;6.33;2.77;;;;;;;19.08;100.00;100347.52;1726035;81;21129;-73
2022/07/08 05:27:48;;;;;;;5.28;2.80;;;;;;;19.03;100.00;100347.83;1756268;81;21056;-72
2022/07/08 05:30:15;;;;;;;3.67;2.67;;;;;;;19.05;100.00;100343.25;1756137;81;21225;-75
2022/07/08 05:32:42;;;;;;;4.60;2.80;;;;;;;19.06;100.00;100350.28;1755929;81;21116;-73
2022/07/08 05:35:12;;;;;;;3.95;2.47;;;;;;;19.04;100.00;100346.01;1755903;81;21041;-72
2022/07/08 05:37:38;;;;;;;2.72;2.52;;;;;;;18.98;100.00;100360.64;1755827;81;21044;-73
2022/07/08 05:40:07;;;;;;;2.90;2.45;;;;;;;18.94;100.00;100364.48;1756060;81;21045;-73
2022/07/08 05:42:33;;;;;;;5.55;2.83;;;;;;;18.94;100.00;100362.30;1755338;81;21112;-73
2022/07/08 05:45:00;;;;;;;3.12;2.72;;;;;;;18.94;100.00;100364.48;1756212;81;21052;-72
2022/07/08 05:47:27;;;;;;;4.50;2.90;;;;;;;18.95;100.00;100371.51;1736177;81;21044;-73
2022/07/08 05:49:53;;;;;;;5.08;2.55;;;;;;;18.95;100.00;100371.51;1726114;83;21521;-72
2022/07/08 05:52:19;;;;;;;5.70;2.40;;;;;;;18.95;100.00;100375.51;1750096;81;21525;-73
2022/07/08 05:54:47;;;;;;;7.15;2.87;;;;;;;18.95;100.00;100381.34;1728071;81;21213;-72
2022/07/08 05:57:14;;;;;;;7.20;2.80;;;;;;;18.93;100.00;100391.25;1745500;81;21060;-73
2022/07/08 05:59:42;;;;;;;4.60;3.02;;;;;;;18.91;100.00;100394.05;1756177;81;22052;-72
2022/07/08 06:02:08;;;;;;;3.65;2.52;;;;;;;18.85;100.00;100390.45;1756007;81;21088;-73
2022/07/08 06:04:35;;;;;;;6.53;2.77;;;;;;;18.82;100.00;100385.33;1745359;81;21053;-72
2022/07/08 06:07:03;;;;;;;4.05;2.98;;;;;;;18.82;100.00;100394.67;1735446;81;21111;-73
2022/07/08 06:09:32;;;;;;;4.83;3.02;;;;;;;18.82;100.00;100394.67;1742239;81;21028;-72
2022/07/08 06:11:59;;;;;;;4.33;3.02;;;;;;;18.83;100.00;100383.88;1736128;81;21555;-74
2022/07/08 06:14:27;;;;;;;6.67;3.10;;;;;;;18.86;100.00;100390.81;1756848;81;21052;-72
2022/07/08 06:16:54;;;;;;;6.22;2.70;;;;;;;18.83;100.00;100398.55;1753469;81;21596;-72
2022/07/08 06:19:22;;;;;;;4.30;2.98;;;;;;;18.80;100.00;100403.25;1741915;81;22136;-74
2022/07/08 06:21:49;;;;;;;4.00;2.75;;;;;;;18.78;100.00;100401.16;1753030;81;21037;-72
2022/07/08 06:24:16;;;;;;;5.87;2.90;;;;;;;18.72;100.00;100393.52;1683248;84;21353;-73
2022/07/08 06:26:44;;;;;;;4.30;2.80;;;;;;;18.79;100.00;100396.19;1721879;82;21030;-74
2022/07/08 06:29:11;;;;;;;8.50;3.22;;;;;;;18.78;100.00;100397.16;1748456;81;21076;-73
2022/07/08 06:31:38;;;;;;;5.45;2.70;;;;;;;18.77;100.00;100402.10;1748155;82;21193;-73
2022/07/08 06:34:05;;;;;;;2.80;2.60;;;;;;;18.72;100.00;100388.19;1737519;82;21509;-74
2022/07/08 06:36:32;;;;;;;4.37;3.08;;;;;;;18.66;100.00;100391.65;1731966;82;21569;-74
2022/07/08 06:39:00;;;;;;;3.35;2.65;;;;;;;18.59;100.00;100397.02;1727366;82;21002;-73
2022/07/08 06:41:27;;;;;;;4.47;2.77;;;;;;;18.46;100.00;100389.44;1748111;81;21091;-72
2022/07/08 06:43:53;;;;;;;5.00;2.75;;;;;;;18.32;100.00;100381.50;1737275;82;21100;-72
2022/07/08 06:46:20;;;;;;;9.73;3.60;;;;;;;18.15;100.00;100367.46;1735902;82;21048;-74
2022/07/08 06:48:47;;;;;;;8.48;3.95;;;;;;;18.07;100.00;100344.44;1718452;83;21045;-71
2022/07/08 06:51:13;;;;;;;5.72;3.40;;;;;;;18.00;100.00;100300.50;1717776;83;21053;-73
2022/07/08 06:56:25;;;;;;;4.28;3.17;;;;;;;17.92;100.00;100238.84;1748228;82;21168;-74
2022/07/08 06:58:52;;;;;;;4.00;2.90;;;;;;;17.97;100.00;100236.76;1748645;82;21013;-73
2022/07/08 07:01:20;;;;;;;4.08;3.10;;;;;;;17.96;100.00;100243.02;1748004;82;21025;-72
2022/07/08 07:03:47;;;;;;;3.90;3.20;;;;;;;17.96;100.00;100253.68;1748078;82;22097;-72
2022/07/08 07:06:14;;;;;;;5.83;3.10;;;;;;;17.96;100.00;100251.86;1748185;82;21065;-72
2022/07/08 07:08:41;;;;;;;5.30;2.90;;;;;;;17.95;100.00;100237.33;1748370;82;21179;-72
2022/07/08 07:11:08;;;;;;;5.85;2.60;;;;;;;17.96;100.00;100230.55;1748320;82;21093;-72
2022/07/08 07:13:35;;;;;;;7.00;3.20;;;;;;;18.01;100.00;100239.11;1748138;82;21154;-73
2022/07/08 07:16:03;;;;;;;5.15;2.55;;;;;;;18.07;100.00;100253.83;1748255;82;21080;-72
2022/07/08 07:18:31;;;;;;;4.85;2.70;;;;;;;18.15;100.00;100255.52;1748176;82;22063;-72
2022/07/08 07:20:57;;;;;;;5.12;2.42;;;;;;;18.23;100.00;100259.84;1748273;82;21792;-73
2022/07/08 07:23:24;;;;;;;2.85;2.50;;;;;;;18.33;100.00;100272.55;1748159;82;21081;-72
2022/07/08 07:25:51;;;;;;;4.42;2.50;;;;;;;18.43;100.00;100277.66;1742408;81;21054;-73
2022/07/08 07:28:18;;;;;;;4.10;2.30;;;;;;;18.56;100.00;100278.52;1734452;82;20990;-71
2022/07/08 07:30:45;;;;;;;9.13;2.05;;;;;;;18.77;100.00;100295.38;1734700;82;21101;-71
2022/07/08 07:33:12;;;;;;;4.75;2.58;;;;;;;18.90;100.00;100298.92;1734257;82;22154;-75
2022/07/08 07:35:39;;;;;;;3.10;1.95;;;;;;;18.97;100.00;100304.20;1734197;82;21019;-73
2022/07/08 07:38:05;;;;;;;3.60;2.02;;;;;;;19.11;100.00;100310.41;1734453;82;21022;-73
2022/07/08 07:40:33;;;;;;;3.95;2.10;;;;;;;19.21;100.00;100310.12;1732899;82;21506;-74
2022/07/08 07:43:01;;;;;;;4.00;2.10;;;;;;;19.37;100.00;100308.56;1696407;84;21044;-73
2022/07/08 07:45:28;;;;;;;3.17;2.02;;;;;;;19.52;100.00;100302.63;1693406;84;21828;-72
2022/07/08 07:47:55;;;;;;;5.00;2.00;;;;;;;19.72;100.00;100302.08;1693469;84;21166;-71
2022/07/08 07:50:22;;;;;;;2.00;1.75;;;;;;;19.88;100.00;100297.32;1693445;84;21101;-72
2022/07/08 07:52:49;;;;;;;3.12;1.90;;;;;;;20.00;100.00;100295.56;1690389;84;21137;-73
2022/07/08 07:55:16;;;;;;;3.70;1.95;;;;;;;20.06;100.00;100291.57;1665931;86;21120;-73
2022/07/08 07:57:46;;;;;;;3.55;1.72;;;;;;;20.11;100.00;100290.28;1665880;86;21126;-72
2022/07/08 08:00:15;;;;;;;2.37;1.72;;;;;;;20.21;100.00;100288.25;1666334;86;21155;-72
2022/07/08 08:02:42;;;;;;;2.95;1.85;;;;;;;20.28;100.00;100287.67;1666178;86;21145;-73
2022/07/08 08:05:09;;;;;;;3.50;2.08;;;;;;;20.37;100.00;100293.31;1666481;86;21074;-72
2022/07/08 08:07:40;;;;;;;2.77;1.92;;;;;;;20.42;97.12;100293.80;1666090;86;21054;-73
2022/07/08 08:10:08;;;;;;;3.92;2.00;;;;;;;20.47;96.11;100298.31;1666597;86;22138;-73
2022/07/08 08:12:37;;;;;;;2.42;1.80;;;;;;;20.49;95.84;100288.36;1666426;86;21054;-73
2022/07/08 08:15:07;;;;;;;4.33;2.00;;;;;;;20.52;95.86;100288.11;1666359;86;21549;-73
2022/07/08 08:17:40;;;;;;;2.58;1.80;;;;;;;20.55;93.82;100282.55;1665929;86;21152;-72
2022/07/08 08:20:10;;;;;;;2.77;1.62;;;;;;;20.60;94.42;100269.70;1666519;86;21732;-73
2022/07/08 08:22:38;;;;;;;3.45;2.08;;;;;;;20.68;93.62;100278.00;1666157;86;21126;-73
2022/07/08 08:25:06;;;;;;;8.98;2.10;;;;;;;20.74;93.36;100282.86;1666510;85;21204;-73
2022/07/08 08:27:40;;;;;;;2.85;1.72;;;;;;;20.82;92.55;100281.41;1666183;86;21649;-71
2022/07/08 08:30:11;;;;;;;3.62;2.60;;;;;;;20.95;91.86;100282.17;1666215;86;21125;-72
2022/07/08 08:32:38;;;;;;;6.28;2.70;;;;;;;21.04;91.53;100281.45;1666281;86;21160;-73
2022/07/08 08:35:06;;;;;;;4.58;3.87;;;;;;;21.20;90.93;100276.23;1666402;86;21605;-74
2022/07/08 08:39:45;;;;;;;7.03;3.67;;;;;;;21.30;90.58;100279.41;1814583;79;22583;-73
2022/07/08 08:42:12;;;;;;;2.85;2.33;;;;;;;21.35;89.91;100281.23;1787616;80;21181;-74
2022/07/08 08:44:40;;;;;;;4.05;2.00;;;;;;;21.37;88.92;100279.75;1787704;80;20969;-71
2022/07/08 08:47:07;;;;;;;5.35;2.42;;;;;;;21.37;88.57;100277.06;1787662;80;21596;-73
2022/07/08 08:49:34;;;;;;;4.80;2.12;;;;;;;21.35;89.11;100275.03;1787549;80;20953;-72
2022/07/08 08:52:04;;;;;;;3.25;2.00;;;;;;;21.36;89.13;100288.77;1787673;80;21080;-71
2022/07/08 08:54:36;;;;;;;2.67;2.08;;;;;;;21.34;88.76;100287.55;1787732;80;20924;-73
2022/07/08 08:57:05;;;;;;;10.43;2.10;;;;;;;21.31;89.13;100289.63;1787948;80;21105;-73
2022/07/08 08:59:34;;;;;;;9.03;2.20;;;;;;;21.28;89.46;100292.53;1787426;80;20951;-72
2022/07/08 09:02:01;;;;;;;3.00;2.23;;;;;;;21.24;89.32;100285.73;1787927;80;21105;-72
2022/07/08 09:04:30;;;;;;;4.05;2.42;;;;;;;21.22;89.78;100297.91;1787395;80;21086;-73
2022/07/08 09:07:00;;;;;;;4.17;2.02;;;;;;;21.26;91.15;100291.34;1787756;80;21573;-72
2022/07/08 09:09:27;;;;;;;2.77;1.98;;;;;;;21.32;91.23;100298.02;1787611;80;21208;-73
2022/07/08 09:11:54;;;;;;;2.90;1.90;;;;;;;21.37;90.65;100301.17;1787412;80;21094;-71
2022/07/08 09:14:22;;;;;;;3.25;1.80;;;;;;;21.41;90.10;100297.32;1787646;80;21031;-72
2022/07/08 09:17:09;;;;;;;7.05;2.10;;;;;;;21.41;90.17;100294.64;1780459;80;21102;-73
2022/07/08 09:19:46;;;;;;;3.55;2.00;;;;;;;21.39;90.19;100295.22;1751689;81;21005;-72
2022/07/08 09:22:13;;;;;;;4.55;2.25;;;;;;;21.33;89.95;100299.74;1748498;82;21131;-73
2022/07/08 09:24:40;;;;;;;2.62;2.42;;;;;;;21.33;90.03;100289.03;1692207;84;21109;-71
2022/07/08 09:27:10;;;;;;;3.98;2.35;;;;;;;21.31;90.27;100297.67;1691477;83;21097;-73
2022/07/08 09:30:05;;;;;;;4.42;2.52;;;;;;;21.34;90.95;100300.09;1691565;84;21101;-71
2022/07/08 09:32:32;;;;;;;3.22;2.17;;;;;;;21.38;90.88;100296.20;1677939;84;21040;-72
2022/07/08 09:34:59;;;;;;;7.90;2.40;;;;;;;21.40;90.47;100287.59;1696551;84;21060;-73
2022/07/08 09:37:26;;;;;;;3.75;2.45;;;;;;;21.40;90.53;100279.55;1696746;84;21643;-73
2022/07/08 09:39:52;;;;;;;3.15;2.10;;;;;;;21.44;90.33;100281.02;1683200;84;21071;-72
2022/07/08 09:42:19;;;;;;;6.17;2.27;;;;;;;21.47;90.48;100275.41;1742890;82;21078;-72
2022/07/08 09:44:53;;;;;;;6.97;2.42;;;;;;;21.50;90.42;100274.30;1743043;81;21101;-72
2022/07/08 09:47:20;;;;;;;3.98;2.52;;;;;;;21.54;90.57;100269.91;1716157;82;21249;-73
2022/07/08 09:49:47;;;;;;;3.22;1.98;;;;;;;21.62;89.75;100275.14;1743819;81;21044;-73
2022/07/08 09:52:22;;;;;;;11.78;2.77;;;;;;;21.67;89.43;100275.61;1742699;82;21105;-73
2022/07/08 09:55:03;;;;;;;7.85;2.90;;;;;;;21.66;88.35;100273.92;1743039;82;21118;-72
2022/07/08 09:57:31;;;;;;;8.60;3.00;;;;;;;21.65;88.15;100277.56;1742937;82;21093;-72
2022/07/08 09:59:57;;;;;;;2.10;1.87;;;;;;;21.63;88.73;100276.36;1758494;81;21072;-73
2022/07/08 10:02:24;;;;;;;23.87;3.70;;;;;;;21.70;88.32;100272.70;1739595;81;21030;-72
2022/07/08 10:04:51;;;;;;;3.20;2.52;;;;;;;21.80;88.22;100269.62;1730574;82;21538;-72
2022/07/08 10:07:18;;;;;;;5.28;2.47;;;;;;;21.89;87.82;100262.16;1724973;82;21546;-74
2022/07/08 10:09:46;;;;;;;6.47;2.72;;;;;;;21.99;87.64;100263.59;1743109;82;21623;-72
2022/07/08 10:12:14;;;;;;;2.77;2.33;;;;;;;22.11;87.26;100255.01;1742843;82;21128;-71
2022/07/08 10:14:45;;;;;;;5.30;1.98;;;;;;;22.30;86.13;100257.06;1742343;81;21118;-73
2022/07/08 10:17:14;;;;;;;3.08;1.92;;;;;;;22.48;85.09;100265.39;1742400;82;21085;-72
2022/07/08 10:19:41;;;;;;;8.00;2.45;;;;;;;22.58;83.55;100267.14;1742492;82;21079;-72
2022/07/08 10:22:08;;;;;;;3.08;2.33;;;;;;;22.71;83.49;100266.95;1742707;82;21070;-73
2022/07/08 10:24:40;;;;;;;3.72;2.25;;;;;;;22.88;83.18;100265.49;1721676;82;21228;-71
2022/07/08 10:27:06;;;;;;;;;;;;;;;23.09;82.83;100264.64;1724851;82;21492;-73
2022/07/08 10:29:33;;;;;;;2.47;1.70;;;;;;;23.22;81.36;100267.47;1737299;82;20210;-73
2022/07/08 10:32:00;;;;;;;4.75;1.42;;;;;;;23.37;80.28;100261.21;1723576;82;21549;-71
2022/07/08 10:34:35;;;;;;;4.25;1.65;;;;;;;23.59;76.67;100267.38;1740992;82;21056;-73
2022/07/08 10:37:05;;;;;;;1.92;1.67;;;;;;;23.69;76.51;100266.06;1742787;82;21843;-72
2022/07/08 10:39:41;;;;;;;3.87;1.42;;;;;;;23.90;76.62;100257.41;1750741;81;21067;-72
2022/07/08 10:42:10;;;;;;;3.67;1.47;;;;;;;24.12;75.13;100258.16;1752503;81;21044;-73
2022/07/08 10:44:47;;;;;;;3.30;1.45;;;;;;;24.32;73.93;100263.02;1755991;81;21123;-73
2022/07/08 10:47:23;;;;;;;1.55;1.20;;;;;;;24.45;71.60;100265.77;1756202;81;21064;-72
2022/07/08 10:49:50;;;;;;;3.45;1.50;;;;;;;24.56;69.73;100262.12;1747474;81;21920;-72
2022/07/08 10:52:20;;;;;;;7.50;1.80;;;;;;;24.56;68.59;100265.32;1750638;82;20971;-72
2022/07/08 10:54:46;;;;;;;7.83;1.80;;;;;;;24.47;67.50;100259.79;1678719;85;21038;-72
2022/07/08 10:57:27;;;;;;;2.08;1.62;;;;;;;24.33;68.81;100254.81;1668869;86;21064;-72
2022/07/08 11:00:09;;;;;;;;;;;;;;;24.32;67.71;100257.17;1671398;86;21080;-72
2022/07/08 11:02:41;;;;;;;2.22;1.30;;;;;;;24.32;68.68;100261.68;1668881;86;21775;-73
2022/07/08 11:05:39;;;;;;;2.98;1.20;;;;;;;24.34;68.56;100260.57;1668820;86;21084;-74
2022/07/08 11:08:25;;;;;;;1.57;1.12;;;;;;;24.42;68.49;100255.30;1608433;87;21136;-74
2022/07/08 11:10:53;;;;;;;4.72;1.32;;;;;;;24.46;66.57;100263.45;1608503;89;21141;-72
2022/07/08 11:13:20;;;;;;;4.12;1.57;;;;;;;24.53;66.94;100257.04;1645590;84;21994;-72
2022/07/08 11:15:47;;;;;;;1.75;1.27;;;;;;;24.61;65.85;100261.69;1696970;84;21625;-73
2022/07/08 11:18:24;;;;;;;3.65;1.22;;;;;;;24.65;65.68;100267.98;1688104;82;21620;-73
2022/07/08 11:21:02;;;;;;;2.30;1.20;;;;;;;24.68;65.64;100263.65;1696429;84;21104;-72
2022/07/08 11:23:29;;;;;;;6.58;1.30;;;;;;;24.62;65.45;100265.59;1685494;84;21075;-72
2022/07/08 11:25:57;;;;;;;2.33;1.10;;;;;;;24.57;64.23;100258.92;1697245;84;21572;-72
2022/07/08 11:28:24;;;;;;;3.98;1.10;;;;;;;24.60;65.69;100254.63;1697018;83;21300;-72
2022/07/08 11:30:50;;;;;;;2.58;1.10;;;;;;;24.90;66.12;100254.40;1697000;84;21045;-72
2022/07/08 11:33:19;;;;;;;4.70;1.50;;;;;;;25.31;65.65;100249.60;1696682;84;21124;-72